Time;durP1;ratioP1;P1;durP2;ratioP2;P2;SDS_P1;SDS_P2;PMS_P1;PMS_P2;Temp;Humidity;BMP_temperature;BMP_pressure;BME280_temperature;BME280_humidity;BME280_pressure;Samples;Min_cycle;Max_cycle;Signal;HPM_P1;HPM_P2
2022/03/26 00:00:21;;;;;;;33.65;26.80;;;10.80;49.60;;;;;;5019405;28;20045;-86
2022/03/26 00:02:48;;;;;;;32.60;26.20;;;10.80;49.60;;;;;;5024585;28;20032;-86
2022/03/26 00:05:15;;;;;;;35.47;26.58;;;10.70;49.50;;;;;;5042237;28;20503;-87
2022/03/26 00:07:42;;;;;;;35.30;27.67;;;10.70;49.50;;;;;;5035504;28;20505;-86
2022/03/26 00:10:09;;;;;;;34.85;26.45;;;10.60;49.40;;;;;;5042527;28;20380;-86
2022/03/26 00:12:35;;;;;;;31.45;24.63;;;10.60;49.50;;;;;;5030661;28;20160;-86
2022/03/26 00:15:01;;;;;;;31.80;24.60;;;10.60;49.60;;;;;;5024440;28;20052;-84
2022/03/26 00:17:27;;;;;;;37.25;26.65;;;10.50;49.50;;;;;;5022512;28;20449;-85
2022/03/26 00:19:53;;;;;;;35.38;26.45;;;10.50;49.60;;;;;;5027328;28;20044;-87
2022/03/26 00:22:20;;;;;;;32.90;25.67;;;10.50;49.70;;;;;;5021908;28;20026;-85
2022/03/26 00:24:46;;;;;;;34.40;26.90;;;10.40;49.60;;;;;;5016135;28;20026;-86
2022/03/26 00:27:12;;;;;;;35.35;26.00;;;10.40;49.70;;;;;;5025545;28;20451;-86
2022/03/26 00:29:37;;;;;;;32.72;26.52;;;10.40;49.80;;;;;;5023420;28;20548;-84
2022/03/26 00:32:04;;;;;;;34.05;25.23;;;10.30;49.70;;;;;;5024151;28;20040;-84
2022/03/26 00:34:32;;;;;;;31.98;25.17;;;10.30;49.80;;;;;;5019197;28;20033;-84
2022/03/26 00:36:58;;;;;;;33.45;25.05;;;10.20;49.60;;;;;;5020581;28;20381;-84
2022/03/26 00:39:24;;;;;;;32.65;25.20;;;10.20;49.70;;;;;;5041842;28;20029;-84
2022/03/26 00:41:50;;;;;;;36.45;26.20;;;10.20;49.80;;;;;;5024648;28;20040;-83
2022/03/26 00:44:17;;;;;;;36.28;26.30;;;10.20;49.80;;;;;;5026782;28;20029;-83
2022/03/26 00:46:46;;;;;;;35.80;26.38;;;10.10;49.70;;;;;;5022690;28;20049;-84
2022/03/26 00:49:18;;;;;;;33.65;25.33;;;10.10;49.80;;;;;;5007766;28;20095;-84
2022/03/26 00:51:45;;;;;;;35.65;27.27;;;10.10;49.90;;;;;;5023325;28;20026;-84
2022/03/26 00:54:12;;;;;;;35.95;26.67;;;10.10;50.00;;;;;;5025011;28;20038;-83
2022/03/26 00:56:39;;;;;;;34.00;25.17;;;10.00;49.80;;;;;;5022175;28;20030;-84
2022/03/26 00:59:06;;;;;;;37.55;26.73;;;10.00;49.90;;;;;;5026234;28;20030;-88
2022/03/26 01:01:33;;;;;;;34.38;25.33;;;10.00;50.00;;;;;;5024255;28;20038;-88
2022/03/26 01:03:59;;;;;;;37.83;27.33;;;9.90;49.90;;;;;;5026481;28;20057;-90
2022/03/26 01:06:26;;;;;;;37.45;25.83;;;9.90;50.00;;;;;;5035173;28;20504;-91
2022/03/26 01:08:52;;;;;;;36.42;27.20;;;9.90;50.00;;;;;;5032656;28;20455;-90
2022/03/26 01:11:18;;;;;;;34.60;24.55;;;9.90;50.60;;;;;;5026655;28;20065;-89
2022/03/26 01:13:45;;;;;;;38.92;26.20;;;9.90;50.10;;;;;;5035533;28;20045;-89
2022/03/26 01:16:12;;;;;;;33.45;26.00;;;9.90;50.20;;;;;;5025915;28;20132;-90
2022/03/26 01:18:39;;;;;;;37.70;26.58;;;9.90;50.20;;;;;;5025850;28;20120;-86
2022/03/26 01:21:05;;;;;;;34.33;25.92;;;9.80;50.00;;;;;;5026616;28;20036;-86
2022/03/26 01:23:32;;;;;;;37.38;26.25;;;9.80;50.10;;;;;;5026158;28;20029;-87
2022/03/26 01:25:58;;;;;;;35.90;25.95;;;9.80;50.20;;;;;;5021359;28;20481;-85
2022/03/26 01:28:26;;;;;;;35.03;26.52;;;9.80;50.20;;;;;;5024227;28;20033;-87
2022/03/26 01:30:52;;;;;;;32.75;25.08;;;9.80;50.20;;;;;;5024994;28;20029;-89
2022/03/26 01:33:19;;;;;;;36.70;25.90;;;9.80;50.30;;;;;;5024813;28;20440;-87
2022/03/26 01:35:45;;;;;;;32.50;24.92;;;9.70;50.20;;;;;;5023476;28;20398;-89
2022/03/26 01:38:11;;;;;;;34.45;25.92;;;9.70;50.20;;;;;;5016652;28;20088;-89
2022/03/26 01:40:37;;;;;;;37.92;25.77;;;9.70;50.30;;;;;;5026630;28;20358;-90
2022/03/26 01:43:04;;;;;;;36.63;25.83;;;9.60;50.10;;;;;;5039576;28;20603;-88
2022/03/26 01:45:30;;;;;;;37.33;25.17;;;9.60;50.10;;;;;;5040329;28;20472;-87
2022/03/26 01:47:58;;;;;;;32.28;25.20;;;9.70;50.30;;;;;;5024837;28;20049;-88
2022/03/26 01:50:28;;;;;;;36.92;26.73;;;9.60;50.30;;;;;;5023707;28;20033;-88
2022/03/26 01:52:55;;;;;;;31.50;24.45;;;9.60;50.30;;;;;;5025433;28;20029;-86
2022/03/26 01:55:23;;;;;;;33.63;25.42;;;9.50;50.10;;;;;;5041323;28;20493;-89
2022/03/26 01:57:49;;;;;;;32.40;24.52;;;9.50;50.20;;;;;;5034989;28;20034;-87
2022/03/26 02:00:16;;;;;;;36.20;23.63;;;9.50;50.30;;;;;;5024619;28;20040;-85
2022/03/26 02:02:43;;;;;;;36.67;25.83;;;9.40;50.20;;;;;;5023120;28;20037;-85
2022/03/26 02:05:13;;;;;;;34.78;25.63;;;9.40;50.20;;;;;;5024655;28;20066;-84
2022/03/26 02:07:40;;;;;;;34.03;24.77;;;9.40;50.30;;;;;;5037551;28;20179;-85
2022/03/26 02:10:11;;;;;;;33.42;24.52;;;9.40;50.40;;;;;;5024697;28;20078;-84
2022/03/26 02:12:37;;;;;;;33.55;24.63;;;9.30;50.30;;;;;;5024337;28;20033;-84
2022/03/26 02:15:06;;;;;;;35.75;26.52;;;9.30;50.30;;;;;;5021155;28;20026;-84
2022/03/26 02:17:33;;;;;;;33.58;25.15;;;9.30;50.40;;;;;;5019571;28;20033;-84
2022/03/26 02:20:00;;;;;;;39.53;26.17;;;9.20;50.30;;;;;;5022903;28;20388;-84
2022/03/26 02:22:28;;;;;;;35.55;26.00;;;9.20;50.40;;;;;;5021262;28;20068;-84
2022/03/26 02:24:54;;;;;;;35.53;24.63;;;9.20;50.50;;;;;;5004278;28;20496;-84
2022/03/26 02:27:22;;;;;;;37.92;25.77;;;9.10;50.30;;;;;;5017244;28;20041;-86
2022/03/26 02:29:49;;;;;;;38.95;27.65;;;9.10;50.40;;;;;;5034724;28;20069;-86
2022/03/26 02:32:18;;;;;;;33.45;25.75;;;9.10;50.50;;;;;;5038443;28;20276;-86
2022/03/26 02:34:44;;;;;;;35.72;24.77;;;9.10;50.60;;;;;;5018561;28;20029;-86
2022/03/26 02:37:10;;;;;;;34.03;24.10;;;9.00;50.40;;;;;;5023327;28;20047;-87
2022/03/26 02:39:36;;;;;;;37.15;26.10;;;9.00;50.50;;;;;;5027321;28;20044;-86
2022/03/26 02:42:02;;;;;;;34.42;24.88;;;9.00;50.50;;;;;;5008401;28;20029;-86
2022/03/26 02:44:28;;;;;;;35.72;25.00;;;9.00;50.50;;;;;;5008703;28;20083;-87
2022/03/26 02:46:54;;;;;;;37.72;26.58;;;9.00;50.60;;;;;;5037244;28;20076;-88
2022/03/26 02:49:19;;;;;;;36.22;24.88;;;9.00;50.70;;;;;;5030988;28;20125;-88
2022/03/26 02:51:45;;;;;;;34.80;25.67;;;8.90;50.60;;;;;;5028978;28;20056;-89
2022/03/26 02:54:18;;;;;;;34.97;24.92;;;8.90;50.60;;;;;;5030075;28;20493;-88
2022/03/26 02:56:48;;;;;;;37.20;26.40;;;8.90;50.60;;;;;;5028878;28;20427;-85
2022/03/26 02:59:15;;;;;;;37.08;25.58;;;8.90;50.70;;;;;;5030393;28;20025;-85
2022/03/26 03:01:41;;;;;;;36.33;25.05;;;8.80;50.50;;;;;;5032380;28;20377;-84
2022/03/26 03:04:07;;;;;;;38.92;26.55;;;8.80;50.60;;;;;;5038032;28;20028;-86
2022/03/26 03:06:34;;;;;;;36.88;26.00;;;8.80;50.70;;;;;;5029992;28;20041;-85
2022/03/26 03:09:05;;;;;;;36.03;25.92;;;8.80;50.70;;;;;;5012215;28;20029;-84
2022/03/26 03:11:31;;;;;;;36.70;25.52;;;8.70;50.60;;;;;;5030081;28;20036;-83
2022/03/26 03:13:57;;;;;;;39.22;26.60;;;8.70;50.70;;;;;;5045860;28;20022;-83
2022/03/26 03:16:24;;;;;;;35.92;25.27;;;8.60;50.60;;;;;;5029381;28;20530;-83
2022/03/26 03:18:50;;;;;;;34.50;25.77;;;8.60;50.70;;;;;;5025122;28;20030;-83
2022/03/26 03:21:16;;;;;;;35.72;27.23;;;8.60;50.70;;;;;;5030597;28;20259;-87
2022/03/26 03:23:42;;;;;;;37.67;26.13;;;8.50;50.60;;;;;;5013247;28;20063;-88
2022/03/26 03:26:08;;;;;;;34.75;25.40;;;8.50;50.70;;;;;;5028060;28;20568;-88
2022/03/26 03:28:34;;;;;;;39.40;26.60;;;8.50;50.80;;;;;;5030199;28;20029;-88
2022/03/26 03:31:00;;;;;;;37.47;26.65;;;8.50;50.80;;;;;;5033882;28;20350;-86
2022/03/26 03:33:26;;;;;;;36.03;25.27;;;8.40;50.70;;;;;;5030841;28;20029;-87
2022/03/26 03:35:53;;;;;;;33.72;24.98;;;8.40;50.80;;;;;;5030245;28;20033;-90
2022/03/26 03:38:19;;;;;;;37.75;27.73;;;8.40;50.80;;;;;;5023294;28;20036;-88
2022/03/26 03:40:45;;;;;;;35.80;24.90;;;8.40;50.80;;;;;;5030095;28;20030;-93
2022/03/26 03:43:11;;;;;;;34.90;24.60;;;8.40;50.80;;;;;;5029570;28;20235;-87
2022/03/26 03:45:37;;;;;;;36.53;25.08;;;8.40;50.90;;;;;;5029362;28;20045;-88
2022/03/26 03:48:03;;;;;;;35.28;24.80;;;8.40;50.90;;;;;;5026379;28;20054;-84
2022/03/26 03:50:29;;;;;;;37.90;26.23;;;8.30;50.80;;;;;;5029542;28;20060;-88
2022/03/26 03:52:55;;;;;;;35.35;25.35;;;8.30;50.80;;;;;;5044989;28;20045;-88
2022/03/26 03:55:21;;;;;;;37.88;25.92;;;8.30;50.80;;;;;;5035338;28;20037;-88
2022/03/26 03:57:47;;;;;;;37.88;26.90;;;8.30;50.90;;;;;;5027927;28;20029;-88
2022/03/26 04:00:15;;;;;;;37.55;26.42;;;8.30;51.00;;;;;;5027173;28;20634;-87
2022/03/26 04:02:43;;;;;;;38.13;26.65;;;8.20;50.80;;;;;;5027047;28;20497;-87
2022/03/26 04:05:10;;;;;;;38.80;27.75;;;8.20;50.90;;;;;;5044769;28;20045;-87
2022/03/26 04:07:37;;;;;;;45.65;26.55;;;8.20;51.00;;;;;;5029012;28;20444;-87
2022/03/26 04:10:05;;;;;;;37.60;26.17;;;8.20;51.00;;;;;;5044049;28;20025;-87
2022/03/26 04:12:31;;;;;;;38.05;26.50;;;8.10;50.90;;;;;;5035205;28;20072;-88
2022/03/26 04:14:57;;;;;;;39.88;27.55;;;8.10;51.00;;;;;;5021136;28;20065;-88
2022/03/26 04:17:23;;;;;;;38.08;26.15;;;8.10;51.00;;;;;;5022041;28;20429;-89
2022/03/26 04:19:49;;;;;;;37.85;25.77;;;8.10;51.10;;;;;;5042101;28;20511;-87
2022/03/26 04:22:15;;;;;;;42.88;27.80;;;8.00;51.00;;;;;;5029227;28;20025;-89
2022/03/26 04:24:40;;;;;;;39.83;26.55;;;8.00;51.10;;;;;;5043911;28;20439;-89
2022/03/26 04:27:06;;;;;;;40.47;27.58;;;8.00;51.10;;;;;;5026738;28;20130;-91
2022/03/26 04:29:32;;;;;;;38.83;27.20;;;7.90;51.00;;;;;;5029437;28;20029;-89
2022/03/26 04:31:59;;;;;;;41.20;27.98;;;7.90;51.00;;;;;;5029933;28;20184;-88
2022/03/26 04:34:25;;;;;;;45.67;28.83;;;7.90;51.10;;;;;;5032296;28;20022;-89
2022/03/26 04:36:52;;;;;;;41.15;27.67;;;7.90;51.10;;;;;;5023475;28;20381;-88
2022/03/26 04:39:18;;;;;;;37.85;25.98;;;7.90;51.20;;;;;;5038039;28;20464;-89
2022/03/26 04:41:43;;;;;;;43.10;27.08;;;7.90;51.20;;;;;;5019859;28;20132;-89
2022/03/26 04:44:09;;;;;;;44.40;27.58;;;7.90;51.30;;;;;;5044825;28;20076;-91
2022/03/26 04:46:35;;;;;;;41.05;27.20;;;7.90;51.30;;;;;;5043820;28;20362;-90
2022/03/26 04:49:01;;;;;;;42.13;27.30;;;7.80;51.10;;;;;;5044554;28;20038;-88
2022/03/26 04:51:27;;;;;;;41.95;27.60;;;7.80;51.10;;;;;;5031042;28;20033;-89
2022/03/26 04:53:53;;;;;;;43.88;28.00;;;7.80;51.20;;;;;;5031127;28;20416;-89
2022/03/26 04:56:19;;;;;;;40.25;26.08;;;7.80;51.20;;;;;;5011215;28;20125;-90
2022/03/26 04:58:45;;;;;;;46.92;28.85;;;7.80;51.30;;;;;;5044016;28;20025;-88
2022/03/26 05:01:11;;;;;;;43.65;28.58;;;7.80;51.40;;;;;;5038722;28;20105;-87
2022/03/26 05:03:37;;;;;;;40.58;27.50;;;7.70;51.20;;;;;;5053391;28;20050;-88
2022/03/26 05:06:02;;;;;;;41.25;27.60;;;7.70;51.30;;;;;;5067834;28;20021;-89
2022/03/26 05:08:28;;;;;;;41.75;26.67;;;7.70;51.30;;;;;;5052653;28;20068;-86
2022/03/26 05:10:54;;;;;;;48.17;30.10;;;7.70;51.40;;;;;;5052556;28;20033;-85
2022/03/26 05:13:20;;;;;;;44.08;28.00;;;7.70;51.40;;;;;;5052805;28;20056;-87
2022/03/26 05:15:46;;;;;;;47.83;29.20;;;7.60;51.30;;;;;;5068583;28;20085;-86
2022/03/26 05:18:13;;;;;;;41.78;28.85;;;7.60;51.40;;;;;;5068574;28;20323;-88
2022/03/26 05:20:39;;;;;;;45.10;27.67;;;7.60;51.40;;;;;;5038521;28;20393;-88
2022/03/26 05:23:05;;;;;;;44.38;27.73;;;7.60;51.50;;;;;;5027135;28;20033;-88
2022/03/26 05:25:31;;;;;;;46.25;28.75;;;7.50;51.40;;;;;;5029060;28;20120;-87
2022/03/26 05:27:58;;;;;;;44.47;29.25;;;7.50;51.40;;;;;;5027406;28;20136;-85
2022/03/26 05:30:24;;;;;;;44.45;28.10;;;7.50;51.50;;;;;;5029291;28;20041;-86
2022/03/26 05:32:50;;;;;;;42.58;28.58;;;7.50;51.50;;;;;;5042747;28;20524;-86
2022/03/26 05:35:16;;;;;;;43.55;27.63;;;7.50;51.60;;;;;;5042532;28;20037;-87
2022/03/26 05:37:47;;;;;;;41.28;27.88;;;7.50;51.60;;;;;;5027264;28;20086;-86
2022/03/26 05:40:16;;;;;;;47.08;29.00;;;7.50;51.60;;;;;;5028655;28;20037;-86
2022/03/26 05:42:43;;;;;;;44.35;28.75;;;7.50;51.60;;;;;;5026169;28;20061;-86
2022/03/26 05:45:09;;;;;;;44.45;28.40;;;7.50;51.70;;;;;;5011377;28;20582;-89
2022/03/26 05:47:37;;;;;;;49.33;29.38;;;7.50;51.80;;;;;;5035554;28;20555;-90
2022/03/26 05:50:05;;;;;;;45.80;28.17;;;7.40;51.60;;;;;;5025587;28;20447;-84
2022/03/26 05:52:31;;;;;;;44.72;27.77;;;7.40;51.60;;;;;;5023721;28;20044;-82
2022/03/26 05:54:57;;;;;;;45.95;28.42;;;7.40;51.70;;;;;;5024697;28;20401;-87
2022/03/26 05:57:23;;;;;;;42.63;28.38;;;7.40;51.70;;;;;;5014818;28;20044;-90
2022/03/26 05:59:49;;;;;;;42.30;27.92;;;7.40;51.70;;;;;;5027882;28;20564;-91
2022/03/26 06:02:15;;;;;;;45.53;30.08;;;7.40;51.70;;;;;;5023942;28;20038;-88
2022/03/26 06:04:42;;;;;;;45.63;27.58;;;7.40;51.80;;;;;;5037049;28;20056;-86
2022/03/26 06:07:08;;;;;;;44.15;27.77;;;7.40;51.90;;;;;;5015965;28;20038;-84
2022/03/26 06:09:38;;;;;;;47.25;30.40;;;7.40;51.90;;;;;;5017478;28;20083;-78
2022/03/26 06:12:05;;;;;;;43.17;28.65;;;7.40;51.90;;;;;;5014999;28;20451;-79
2022/03/26 06:14:32;;;;;;;47.75;29.10;;;7.40;52.00;;;;;;5027575;28;20038;-78
2022/03/26 06:16:58;;;;;;;47.28;29.10;;;7.40;52.00;;;;;;5049466;28;20095;-81
2022/03/26 06:19:26;;;;;;;48.95;29.27;;;7.40;52.00;;;;;;5032067;28;20059;-80
2022/03/26 06:21:52;;;;;;;46.97;28.83;;;7.40;52.00;;;;;;5027734;28;20037;-80
2022/03/26 06:24:18;;;;;;;45.25;27.52;;;7.40;52.10;;;;;;5021129;28;20123;-81
2022/03/26 06:26:47;;;;;;;44.08;27.92;;;7.40;52.10;;;;;;5019951;28;20041;-81
2022/03/26 06:29:14;;;;;;;47.80;30.30;;;7.30;51.90;;;;;;5033143;28;20102;-80
2022/03/26 06:31:40;;;;;;;45.25;28.33;;;7.40;52.10;;;;;;5022111;28;20103;-77
2022/03/26 06:34:06;;;;;;;45.35;27.63;;;7.40;52.10;;;;;;5024943;28;20391;-78
2022/03/26 06:36:34;;;;;;;48.88;27.95;;;7.40;52.20;;;;;;5024358;28;20079;-80
2022/03/26 06:39:06;;;;;;;47.90;29.55;;;7.50;52.70;;;;;;5028084;28;20052;-78
2022/03/26 06:41:33;;;;;;;48.17;28.02;;;7.60;52.90;;;;;;5024808;28;20132;-79
2022/03/26 06:43:58;;;;;;;44.58;27.88;;;7.60;52.80;;;;;;5029689;28;20067;-79
2022/03/26 06:46:24;;;;;;;48.70;27.90;;;7.70;53.20;;;;;;5021105;28;20045;-80
2022/03/26 06:48:50;;;;;;;44.10;26.75;;;7.80;53.30;;;;;;5020997;28;20049;-80
2022/03/26 06:51:16;;;;;;;46.25;28.55;;;7.90;53.50;;;;;;5025165;28;20033;-80
2022/03/26 06:53:42;;;;;;;42.42;26.98;;;7.90;53.40;;;;;;5028715;28;20425;-78
2022/03/26 06:56:08;;;;;;;45.20;28.02;;;7.90;53.30;;;;;;5028372;28;20556;-79
2022/03/26 06:58:34;;;;;;;45.55;28.35;;;8.00;53.40;;;;;;5020997;28;20039;-79
2022/03/26 07:01:01;;;;;;;47.90;29.70;;;8.00;53.90;;;;;;5023942;28;20034;-80
2022/03/26 07:03:27;;;;;;;44.92;28.30;;;8.00;53.30;;;;;;5018031;28;20033;-80
2022/03/26 07:05:54;;;;;;;49.55;28.23;;;8.10;53.40;;;;;;5012091;28;20100;-78
2022/03/26 07:08:20;;;;;;;48.72;28.55;;;8.10;53.30;;;;;;5027091;28;20061;-78
2022/03/26 07:10:46;;;;;;;53.75;29.27;;;8.20;53.40;;;;;;5016999;28;20056;-77
2022/03/26 07:13:13;;;;;;;49.47;28.92;;;8.30;53.40;;;;;;5020815;28;20024;-78
2022/03/26 07:15:40;;;;;;;45.95;28.13;;;8.40;53.40;;;;;;5032188;28;20029;-80
2022/03/26 07:18:07;;;;;;;45.33;29.25;;;8.50;53.40;;;;;;5039031;28;20028;-82
2022/03/26 07:20:33;;;;;;;52.35;29.60;;;8.60;53.40;;;;;;5035956;28;20025;-86
2022/03/26 07:22:59;;;;;;;41.92;27.45;;;8.70;53.40;;;;;;5031572;28;20262;-82
2022/03/26 07:25:25;;;;;;;50.90;29.23;;;8.70;53.20;;;;;;5037384;28;20040;-85
2022/03/26 07:27:51;;;;;;;46.08;28.95;;;8.80;53.30;;;;;;5030228;28;20452;-85
2022/03/26 07:30:17;;;;;;;48.72;28.88;;;8.90;53.40;;;;;;5027479;28;20033;-85
2022/03/26 07:32:43;;;;;;;45.45;28.92;;;8.90;53.20;;;;;;5030072;28;20041;-84
2022/03/26 07:35:09;;;;;;;47.58;28.95;;;9.00;53.30;;;;;;5050703;28;20036;-91
2022/03/26 07:37:35;;;;;;;45.28;27.02;;;9.20;53.40;;;;;;5053793;28;20542;-86
2022/03/26 07:40:01;;;;;;;47.65;31.15;;;9.20;53.10;;;;;;5043929;28;20029;-85
2022/03/26 07:42:28;;;;;;;47.13;30.52;;;9.40;53.30;;;;;;5027421;28;20037;-86
2022/03/26 07:44:54;;;;;;;48.25;29.75;;;9.50;53.20;;;;;;5045405;28;20447;-84
2022/03/26 07:47:20;;;;;;;46.13;28.60;;;9.60;53.10;;;;;;5018651;28;20054;-84
2022/03/26 07:49:46;;;;;;;43.00;27.45;;;9.70;53.10;;;;;;5024221;28;20017;-85
2022/03/26 07:52:12;;;;;;;48.00;28.02;;;9.90;53.50;;;;;;5039023;28;20033;-83
2022/03/26 07:54:39;;;;;;;47.55;29.40;;;10.00;53.60;;;;;;5009594;28;20035;-84
2022/03/26 07:57:05;;;;;;;40.10;27.17;;;10.20;53.80;;;;;;5015436;28;20163;-86
2022/03/26 07:59:32;;;;;;;43.15;28.33;;;10.30;53.70;;;;;;5038039;28;20082;-80
2022/03/26 08:01:58;;;;;;;44.65;28.10;;;10.40;53.80;;;;;;5020990;28;20402;-81
2022/03/26 08:04:23;;;;;;;47.63;28.35;;;10.50;53.90;;;;;;5027548;28;20083;-81
2022/03/26 08:06:49;;;;;;;44.22;25.98;;;10.50;53.80;;;;;;5034466;28;20551;-82
2022/03/26 08:09:15;;;;;;;43.58;25.95;;;10.60;53.90;;;;;;5034042;28;20076;-81
2022/03/26 08:11:42;;;;;;;39.95;25.90;;;10.60;53.80;;;;;;5023638;28;20107;-81
2022/03/26 08:14:08;;;;;;;44.75;25.77;;;10.70;53.90;;;;;;5045422;28;20030;-81
2022/03/26 08:16:35;;;;;;;40.30;26.27;;;10.70;53.80;;;;;;5025631;28;20033;-80
2022/03/26 08:19:00;;;;;;;45.42;29.13;;;10.80;53.90;;;;;;5020578;28;20164;-81
2022/03/26 08:21:26;;;;;;;38.28;25.90;;;10.80;54.40;;;;;;5008252;28;20116;-81
2022/03/26 08:23:54;;;;;;;42.63;27.13;;;10.80;53.80;;;;;;5018066;28;20057;-81
2022/03/26 08:26:20;;;;;;;39.28;26.75;;;10.90;53.80;;;;;;5017486;28;20037;-81
2022/03/26 08:28:46;;;;;;;44.15;28.42;;;10.90;53.70;;;;;;5021839;28;20030;-81
2022/03/26 08:31:13;;;;;;;41.80;25.80;;;11.00;53.80;;;;;;5002791;28;20026;-83
2022/03/26 08:33:40;;;;;;;39.45;26.85;;;11.00;53.70;;;;;;5026349;28;20048;-84
2022/03/26 08:36:06;;;;;;;37.88;24.75;;;11.10;53.70;;;;;;5014183;28;20040;-83
2022/03/26 08:38:34;;;;;;;40.17;25.45;;;11.20;53.80;;;;;;4999541;28;20480;-84
2022/03/26 08:40:59;;;;;;;37.78;24.27;;;11.20;53.60;;;;;;5039069;28;20034;-84
2022/03/26 08:43:25;;;;;;;37.25;25.55;;;11.30;53.60;;;;;;5021488;28;20036;-83
2022/03/26 08:45:51;;;;;;;39.80;25.55;;;11.30;53.50;;;;;;5029594;28;20124;-83
2022/03/26 08:48:17;;;;;;;36.88;25.25;;;11.40;53.50;;;;;;5017338;28;20406;-83
2022/03/26 08:50:43;;;;;;;36.13;26.55;;;11.40;53.40;;;;;;5018741;28;20048;-83
2022/03/26 08:53:13;;;;;;;36.72;24.13;;;11.50;53.40;;;;;;5017891;28;20029;-83
2022/03/26 08:55:39;;;;;;;38.28;23.88;;;11.50;53.20;;;;;;5035116;28;20415;-84
2022/03/26 08:58:07;;;;;;;38.08;24.38;;;11.50;53.10;;;;;;5015518;28;20036;-84
2022/03/26 09:00:34;;;;;;;39.45;25.02;;;11.50;53.00;;;;;;5017133;28;20044;-82
2022/03/26 09:03:01;;;;;;;38.28;24.55;;;11.60;53.00;;;;;;5016737;28;20492;-82
2022/03/26 09:05:28;;;;;;;33.90;23.73;;;11.70;53.10;;;;;;5018182;28;20049;-82
2022/03/26 09:07:55;;;;;;;39.28;24.10;;;11.70;53.00;;;;;;5017599;28;20049;-82
2022/03/26 09:10:20;;;;;;;38.88;23.20;;;11.80;53.00;;;;;;5024487;28;20074;-84
2022/03/26 09:12:47;;;;;;;36.53;23.38;;;11.80;52.90;;;;;;5003058;28;20041;-82
2022/03/26 09:15:13;;;;;;;34.22;22.25;;;11.90;52.90;;;;;;5037096;28;20484;-82
2022/03/26 09:17:39;;;;;;;34.80;22.00;;;11.90;52.80;;;;;;5018285;28;20081;-81
2022/03/26 09:20:06;;;;;;;34.20;23.30;;;12.00;52.80;;;;;;5036023;28;20401;-82
2022/03/26 09:22:33;;;;;;;35.17;21.00;;;12.00;52.70;;;;;;5019721;28;20053;-79
2022/03/26 09:24:59;;;;;;;37.38;22.20;;;12.10;52.80;;;;;;5021094;28;20038;-78
2022/03/26 09:27:25;;;;;;;34.95;20.67;;;12.10;52.60;;;;;;5006046;28;20300;-81
2022/03/26 09:29:51;;;;;;;33.15;20.85;;;12.20;52.70;;;;;;5023669;28;20033;-81
2022/03/26 09:32:17;;;;;;;32.15;21.42;;;12.30;52.70;;;;;;5015470;28;20026;-81
2022/03/26 09:34:43;;;;;;;35.75;23.02;;;12.30;52.50;;;;;;5038492;28;20292;-82
2022/03/26 09:37:09;;;;;;;35.80;22.17;;;12.40;52.60;;;;;;5022591;28;20038;-82
2022/03/26 09:39:35;;;;;;;33.45;21.23;;;12.50;52.60;;;;;;5024030;28;20029;-84
2022/03/26 09:42:02;;;;;;;32.25;20.38;;;12.50;52.40;;;;;;5022023;28;20513;-82
2022/03/26 09:44:32;;;;;;;30.33;20.73;;;12.60;52.50;;;;;;5023351;28;20246;-83
2022/03/26 09:46:57;;;;;;;32.72;20.05;;;12.70;52.50;;;;;;5021072;28;20089;-83
2022/03/26 09:49:23;;;;;;;31.70;20.77;;;12.70;52.30;;;;;;5016440;28;20473;-83
2022/03/26 09:51:55;;;;;;;29.67;20.10;;;12.80;52.40;;;;;;5025676;28;20327;-82
2022/03/26 09:54:22;;;;;;;31.35;19.70;;;12.80;52.20;;;;;;5024929;28;20025;-83
2022/03/26 09:56:48;;;;;;;27.30;18.63;;;12.90;52.20;;;;;;5018956;28;20510;-82
2022/03/26 09:59:18;;;;;;;31.33;20.80;;;13.00;52.30;;;;;;5026938;28;20033;-82
2022/03/26 10:01:44;;;;;;;25.40;17.25;;;13.00;52.20;;;;;;5017899;28;20040;-83
2022/03/26 10:04:15;;;;;;;27.63;18.05;;;13.10;52.20;;;;;;5017906;28;20025;-81
2022/03/26 10:06:53;;;;;;;23.83;16.75;;;13.20;52.20;;;;;;5020222;28;20496;-79
2022/03/26 10:09:44;;;;;;;27.98;18.23;;;13.20;52.10;;;;;;5021085;28;20025;-83
2022/03/26 10:12:19;;;;;;;30.67;19.45;;;13.30;52.10;;;;;;5015896;28;20034;-83
2022/03/26 10:14:47;;;;;;;25.77;18.48;;;13.40;52.10;;;;;;5032144;28;20030;-82
2022/03/26 10:17:20;;;;;;;29.42;18.25;;;13.40;52.00;;;;;;5020331;28;20037;-83
2022/03/26 10:19:48;;;;;;;28.42;18.33;;;13.40;51.80;;;;;;5023470;28;20029;-82
2022/03/26 10:22:34;;;;;;;27.75;19.10;;;13.60;52.10;;;;;;5010867;28;20025;-83
2022/03/26 10:25:01;;;;;;;26.55;18.73;;;13.60;51.80;;;;;;5024266;28;20064;-83
2022/03/26 10:27:35;;;;;;;31.55;20.15;;;13.70;51.90;;;;;;5017562;28;20052;-81
2022/03/26 10:30:01;;;;;;;29.05;18.45;;;13.80;52.00;;;;;;5022058;28;20040;-81
2022/03/26 10:32:49;;;;;;;21.90;15.73;;;13.90;52.00;;;;;;5017885;28;20033;-81
2022/03/26 10:35:19;;;;;;;23.08;15.60;;;13.90;51.80;;;;;;5019757;28;20037;-83
2022/03/26 10:37:53;;;;;;;22.40;15.00;;;14.00;51.80;;;;;;5031040;28;20422;-82
2022/03/26 10:40:32;;;;;;;23.27;14.48;;;14.10;51.90;;;;;;5016798;28;20041;-82
2022/03/26 10:43:01;;;;;;;21.45;13.57;;;14.10;51.50;;;;;;5041813;28;20021;-81
2022/03/26 10:45:28;;;;;;;18.63;12.90;;;14.20;51.50;;;;;;5023558;28;20112;-82
2022/03/26 10:47:56;;;;;;;19.35;13.20;;;14.20;51.30;;;;;;5023599;28;20048;-82
2022/03/26 10:50:23;;;;;;;20.17;13.15;;;14.30;51.20;;;;;;5026251;28;20068;-81
2022/03/26 10:52:54;;;;;;;18.20;12.63;;;14.40;51.10;;;;;;5025300;28;20084;-79
2022/03/26 10:55:21;;;;;;;20.42;12.40;;;14.40;50.90;;;;;;5025907;28;20448;-83
2022/03/26 10:57:48;;;;;;;21.20;11.40;;;14.50;50.90;;;;;;5003006;28;20544;-83
2022/03/26 11:00:16;;;;;;;17.05;12.18;;;14.60;50.70;;;;;;5032952;28;20136;-85
2022/03/26 11:02:43;;;;;;;19.77;11.30;;;14.60;50.50;;;;;;5054802;28;20055;-82
2022/03/26 11:05:11;;;;;;;18.48;11.48;;;14.70;50.50;;;;;;5024279;28;20033;-81
2022/03/26 11:07:38;;;;;;;13.80;10.40;;;14.70;50.20;;;;;;5012090;28;20037;-82
2022/03/26 11:10:07;;;;;;;17.90;10.07;;;14.80;50.10;;;;;;5025566;28;20559;-81
2022/03/26 11:12:34;;;;;;;16.63;10.50;;;14.80;49.90;;;;;;5023496;28;20223;-80
2022/03/26 11:15:04;;;;;;;12.55;9.23;;;14.90;49.90;;;;;;5023744;28;20400;-82
2022/03/26 11:17:56;;;;;;;13.30;9.30;;;14.90;49.70;;;;;;5016776;28;20179;-89
2022/03/26 11:20:56;;;;;;;12.43;7.60;;;15.00;49.60;;;;;;5015721;28;20792;-85
2022/03/26 11:23:35;;;;;;;14.23;9.10;;;15.10;49.60;;;;;;5031465;28;20449;-85
2022/03/26 11:26:22;;;;;;;12.13;8.18;;;15.20;49.70;;;;;;5021708;28;20501;-84
2022/03/26 11:29:16;;;;;;;16.38;9.98;;;15.20;49.60;;;;;;5016442;28;20167;-89
2022/03/26 11:31:45;;;;;;;14.27;7.85;;;15.30;49.50;;;;;;5043999;28;20038;-83
2022/03/26 11:34:10;;;;;;;16.08;7.97;;;15.40;49.40;;;;;;5029835;28;20068;-82
2022/03/26 11:36:36;;;;;;;18.17;8.85;;;15.50;49.20;;;;;;5014789;28;20909;-80
2022/03/26 11:39:15;;;;;;;16.08;8.27;;;15.60;49.00;;;;;;5021363;28;20072;-84
2022/03/26 11:41:42;;;;;;;13.85;8.38;;;15.60;48.60;;;;;;5023021;28;20030;-83
2022/03/26 11:44:09;;;;;;;11.70;7.75;;;15.60;48.50;;;;;;5020077;28;20029;-83
2022/03/26 11:52:29;;;;;;;12.40;7.15;;;15.70;48.20;;;;;;5022063;28;20641;-82
2022/03/26 11:55:16;;;;;;;14.07;7.10;;;15.80;48.40;;;;;;5019378;28;20126;-85
2022/03/26 11:57:42;;;;;;;15.90;7.57;;;15.90;48.40;;;;;;5012608;28;20479;-85
2022/03/26 12:00:21;;;;;;;13.20;7.57;;;15.90;48.40;;;;;;5028596;28;20129;-84
2022/03/26 12:02:51;;;;;;;17.55;7.80;;;15.90;47.90;;;;;;5013586;28;20331;-85
2022/03/26 12:08:41;;;;;;;14.57;8.35;;;16.00;47.70;;;;;;5035754;28;20068;-85
2022/03/26 12:11:07;;;;;;;15.35;8.27;;;16.10;47.40;;;;;;5026640;28;20036;-85
2022/03/26 12:13:34;;;;;;;13.82;8.15;;;16.10;47.60;;;;;;5025425;28;20068;-85
2022/03/26 12:16:05;;;;;;;14.05;9.02;;;16.10;47.30;;;;;;5019556;28;20021;-85
2022/03/26 12:18:32;;;;;;;13.32;9.07;;;16.20;47.90;;;;;;5020868;28;20396;-81
2022/03/26 12:21:22;;;;;;;15.52;8.57;;;16.20;47.10;;;;;;5021971;28;20097;-82
2022/03/26 12:23:48;;;;;;;14.52;8.57;;;16.30;47.00;;;;;;5018040;28;20068;-81
2022/03/26 12:26:14;;;;;;;15.90;8.50;;;16.40;47.80;;;;;;5015882;28;20385;-81
2022/03/26 12:28:42;;;;;;;14.70;9.05;;;16.40;47.00;;;;;;5022028;28;20025;-80
2022/03/26 12:31:13;;;;;;;20.08;11.23;;;16.50;47.10;;;;;;5020945;28;20454;-78
2022/03/26 12:33:40;;;;;;;19.33;10.32;;;16.70;47.80;;;;;;5018654;28;20053;-78
2022/03/26 12:36:07;;;;;;;16.35;9.32;;;16.70;46.80;;;;;;5012518;28;20045;-86
2022/03/26 12:38:32;;;;;;;11.90;8.75;;;16.80;46.70;;;;;;5028587;28;20744;-81
2022/03/26 12:41:01;;;;;;;18.95;9.15;;;16.90;46.60;;;;;;5032116;28;20026;-82
2022/03/26 12:43:27;;;;;;;18.92;10.02;;;16.90;46.40;;;;;;5023738;28;20033;-79